sensor_id;sensor_type;location;lat;lon;timestamp;temperature;humidity
18281;DHT22;9266;51.132;17.062;2023-06-26T00:01:31;17.40;83.30
18281;DHT22;9266;51.132;17.062;2023-06-26T00:03:59;17.30;99.90
18281;DHT22;9266;51.132;17.062;2023-06-26T00:06:26;17.30;99.90
18281;DHT22;9266;51.132;17.062;2023-06-26T00:08:54;17.30;99.90
18281;DHT22;9266;51.132;17.062;2023-06-26T00:11:22;17.30;99.90
18281;DHT22;9266;51.132;17.062;2023-06-26T00:13:49;17.30;99.90
18281;DHT22;9266;51.132;17.062;2023-06-26T00:16:18;17.30;99.90
18281;DHT22;9266;51.132;17.062;2023-06-26T00:18:44;17.20;99.90
18281;DHT22;9266;51.132;17.062;2023-06-26T00:21:11;17.20;1.00
18281;DHT22;9266;51.132;17.062;2023-06-26T00:23:38;17.20;1.00
18281;DHT22;9266;51.132;17.062;2023-06-26T00:26:05;17.10;1.00
18281;DHT22;9266;51.132;17.062;2023-06-26T00:28:32;17.00;1.00
18281;DHT22;9266;51.132;17.062;2023-06-26T00:30:59;17.00;1.00
18281;DHT22;9266;51.132;17.062;2023-06-26T00:33:27;16.90;1.00
18281;DHT22;9266;51.132;17.062;2023-06-26T00:35:54;16.90;1.00
18281;DHT22;9266;51.132;17.062;2023-06-26T00:38:21;16.80;5.60
18281;DHT22;9266;51.132;17.062;2023-06-26T00:40:48;16.80;75.40
18281;DHT22;9266;51.132;17.062;2023-06-26T00:43:15;16.70;99.90
18281;DHT22;9266;51.132;17.062;2023-06-26T00:45:42;16.70;99.90
18281;DHT22;9266;51.132;17.062;2023-06-26T00:48:10;16.70;99.90
18281;DHT22;9266;51.132;17.062;2023-06-26T00:50:40;16.60;99.90
18281;DHT22;9266;51.132;17.062;2023-06-26T00:53:09;16.60;99.90
18281;DHT22;9266;51.132;17.062;2023-06-26T00:55:37;16.60;99.90
18281;DHT22;9266;51.132;17.062;2023-06-26T00:58:04;16.60;99.90
18281;DHT22;9266;51.132;17.062;2023-06-26T01:00:32;16.50;99.90
18281;DHT22;9266;51.132;17.062;2023-06-26T01:02:58;16.50;99.90
18281;DHT22;9266;51.132;17.062;2023-06-26T01:05:26;16.40;99.90
18281;DHT22;9266;51.132;17.062;2023-06-26T01:07:56;16.40;99.90
18281;DHT22;9266;51.132;17.062;2023-06-26T01:10:24;16.30;99.90
18281;DHT22;9266;51.132;17.062;2023-06-26T01:12:53;16.30;99.90
18281;DHT22;9266;51.132;17.062;2023-06-26T01:15:20;16.30;99.90
18281;DHT22;9266;51.132;17.062;2023-06-26T01:17:47;16.20;99.90
18281;DHT22;9266;51.132;17.062;2023-06-26T01:20:14;16.20;99.90
18281;DHT22;9266;51.132;17.062;2023-06-26T01:22:47;16.20;99.90
18281;DHT22;9266;51.132;17.062;2023-06-26T01:25:21;16.30;99.90
18281;DHT22;9266;51.132;17.062;2023-06-26T01:27:52;16.30;99.90
18281;DHT22;9266;51.132;17.062;2023-06-26T01:30:21;16.30;99.90
18281;DHT22;9266;51.132;17.062;2023-06-26T01:32:49;16.30;99.90
18281;DHT22;9266;51.132;17.062;2023-06-26T01:35:17;16.40;99.90
18281;DHT22;9266;51.132;17.062;2023-06-26T01:37:44;16.30;99.90
18281;DHT22;9266;51.132;17.062;2023-06-26T01:40:11;16.40;99.90
18281;DHT22;9266;51.132;17.062;2023-06-26T01:42:39;16.40;99.90
18281;DHT22;9266;51.132;17.062;2023-06-26T01:45:12;16.40;99.90
18281;DHT22;9266;51.132;17.062;2023-06-26T01:47:43;16.40;99.90
18281;DHT22;9266;51.132;17.062;2023-06-26T01:50:14;16.30;99.90
18281;DHT22;9266;51.132;17.062;2023-06-26T01:52:53;16.30;99.90
18281;DHT22;9266;51.132;17.062;2023-06-26T01:55:32;16.20;99.90
18281;DHT22;9266;51.132;17.062;2023-06-26T01:58:03;16.20;99.90
18281;DHT22;9266;51.132;17.062;2023-06-26T02:00:32;16.20;99.90
18281;DHT22;9266;51.132;17.062;2023-06-26T02:03:00;16.20;99.90
18281;DHT22;9266;51.132;17.062;2023-06-26T02:05:27;16.10;99.90
18281;DHT22;9266;51.132;17.062;2023-06-26T02:07:56;16.10;99.90
18281;DHT22;9266;51.132;17.062;2023-06-26T02:10:23;16.10;99.90
18281;DHT22;9266;51.132;17.062;2023-06-26T02:12:50;16.00;99.90
18281;DHT22;9266;51.132;17.062;2023-06-26T02:15:17;16.00;99.90
18281;DHT22;9266;51.132;17.062;2023-06-26T02:17:45;15.90;99.90
18281;DHT22;9266;51.132;17.062;2023-06-26T02:20:13;15.90;99.90
18281;DHT22;9266;51.132;17.062;2023-06-26T02:22:41;15.90;99.90
18281;DHT22;9266;51.132;17.062;2023-06-26T02:25:08;15.90;99.90
18281;DHT22;9266;51.132;17.062;2023-06-26T02:27:35;15.90;99.90
18281;DHT22;9266;51.132;17.062;2023-06-26T02:30:02;15.90;99.90
18281;DHT22;9266;51.132;17.062;2023-06-26T02:32:29;15.80;99.90
18281;DHT22;9266;51.132;17.062;2023-06-26T02:34:58;15.80;99.90
18281;DHT22;9266;51.132;17.062;2023-06-26T02:37:25;15.90;99.90
18281;DHT22;9266;51.132;17.062;2023-06-26T02:39:52;15.90;99.90
18281;DHT22;9266;51.132;17.062;2023-06-26T02:42:18;16.00;99.90
18281;DHT22;9266;51.132;17.062;2023-06-26T02:44:45;16.00;99.90
18281;DHT22;9266;51.132;17.062;2023-06-26T02:47:12;16.00;99.90
18281;DHT22;9266;51.132;17.062;2023-06-26T02:49:39;16.00;99.90
18281;DHT22;9266;51.132;17.062;2023-06-26T02:52:08;16.00;99.90
18281;DHT22;9266;51.132;17.062;2023-06-26T02:54:35;16.10;99.90
18281;DHT22;9266;51.132;17.062;2023-06-26T02:57:02;16.10;99.90
18281;DHT22;9266;51.132;17.062;2023-06-26T02:59:29;16.10;99.90
18281;DHT22;9266;51.132;17.062;2023-06-26T03:01:55;16.10;99.90
18281;DHT22;9266;51.132;17.062;2023-06-26T03:04:22;16.10;99.90
18281;DHT22;9266;51.132;17.062;2023-06-26T03:06:49;16.20;99.90
18281;DHT22;9266;51.132;17.062;2023-06-26T03:09:18;16.40;99.90
18281;DHT22;9266;51.132;17.062;2023-06-26T03:11:45;16.80;99.90
18281;DHT22;9266;51.132;17.062;2023-06-26T03:14:11;17.10;99.90
18281;DHT22;9266;51.132;17.062;2023-06-26T03:16:38;17.60;99.90
18281;DHT22;9266;51.132;17.062;2023-06-26T03:19:06;17.90;99.90
18281;DHT22;9266;51.132;17.062;2023-06-26T03:21:33;18.30;99.90
18281;DHT22;9266;51.132;17.062;2023-06-26T03:24:00;18.60;1.00
18281;DHT22;9266;51.132;17.062;2023-06-26T03:26:28;18.90;99.90
18281;DHT22;9266;51.132;17.062;2023-06-26T03:28:55;19.20;1.00
18281;DHT22;9266;51.132;17.062;2023-06-26T03:31:22;19.60;1.00
18281;DHT22;9266;51.132;17.062;2023-06-26T03:33:49;19.80;99.90
18281;DHT22;9266;51.132;17.062;2023-06-26T03:36:16;19.90;99.90
18281;DHT22;9266;51.132;17.062;2023-06-26T03:38:43;20.10;1.00
18281;DHT22;9266;51.132;17.062;2023-06-26T03:41:10;20.40;1.00
18281;DHT22;9266;51.132;17.062;2023-06-26T03:43:38;20.90;99.90
18281;DHT22;9266;51.132;17.062;2023-06-26T03:46:05;20.90;91.10
18281;DHT22;9266;51.132;17.062;2023-06-26T03:48:32;21.30;99.90
18281;DHT22;9266;51.132;17.062;2023-06-26T03:50:59;21.50;1.00
18281;DHT22;9266;51.132;17.062;2023-06-26T03:53:27;21.50;63.60
18281;DHT22;9266;51.132;17.062;2023-06-26T03:55:54;21.90;99.90
18281;DHT22;9266;51.132;17.062;2023-06-26T03:58:21;21.90;1.00
18281;DHT22;9266;51.132;17.062;2023-06-26T04:00:49;22.30;99.90
18281;DHT22;9266;51.132;17.062;2023-06-26T04:03:16;22.50;1.00
18281;DHT22;9266;51.132;17.062;2023-06-26T04:05:43;22.50;1.00
18281;DHT22;9266;51.132;17.062;2023-06-26T04:08:10;22.60;1.00
18281;DHT22;9266;51.132;17.062;2023-06-26T04:10:37;22.60;99.90
18281;DHT22;9266;51.132;17.062;2023-06-26T04:13:04;22.60;1.00
18281;DHT22;9266;51.132;17.062;2023-06-26T04:15:31;22.70;1.00
18281;DHT22;9266;51.132;17.062;2023-06-26T04:17:59;23.40;1.00
18281;DHT22;9266;51.132;17.062;2023-06-26T04:20:26;23.20;99.90
18281;DHT22;9266;51.132;17.062;2023-06-26T04:22:53;23.60;99.90
18281;DHT22;9266;51.132;17.062;2023-06-26T04:25:20;23.90;99.90
18281;DHT22;9266;51.132;17.062;2023-06-26T04:27:47;24.30;1.00
18281;DHT22;9266;51.132;17.062;2023-06-26T04:30:15;24.80;1.00
18281;DHT22;9266;51.132;17.062;2023-06-26T04:32:42;24.60;99.90
18281;DHT22;9266;51.132;17.062;2023-06-26T04:35:10;24.40;13.70
18281;DHT22;9266;51.132;17.062;2023-06-26T04:37:37;24.60;1.00
18281;DHT22;9266;51.132;17.062;2023-06-26T04:40:05;24.80;99.90
18281;DHT22;9266;51.132;17.062;2023-06-26T04:42:32;24.80;1.00
18281;DHT22;9266;51.132;17.062;2023-06-26T04:44:59;24.90;1.00
18281;DHT22;9266;51.132;17.062;2023-06-26T04:47:28;25.00;1.00
18281;DHT22;9266;51.132;17.062;2023-06-26T04:49:55;25.30;99.90
18281;DHT22;9266;51.132;17.062;2023-06-26T04:52:23;25.40;1.00
18281;DHT22;9266;51.132;17.062;2023-06-26T04:54:50;25.60;1.00
18281;DHT22;9266;51.132;17.062;2023-06-26T04:57:17;25.60;1.00
18281;DHT22;9266;51.132;17.062;2023-06-26T04:59:44;27.00;1.00
18281;DHT22;9266;51.132;17.062;2023-06-26T05:02:11;27.20;99.90
18281;DHT22;9266;51.132;17.062;2023-06-26T05:04:40;27.00;1.00
18281;DHT22;9266;51.132;17.062;2023-06-26T05:07:08;27.60;1.00
18281;DHT22;9266;51.132;17.062;2023-06-26T05:09:36;27.00;1.00
18281;DHT22;9266;51.132;17.062;2023-06-26T05:12:04;26.90;1.00
18281;DHT22;9266;51.132;17.062;2023-06-26T05:14:31;26.90;1.00
18281;DHT22;9266;51.132;17.062;2023-06-26T05:16:58;27.30;1.00
18281;DHT22;9266;51.132;17.062;2023-06-26T05:19:25;27.00;99.90
18281;DHT22;9266;51.132;17.062;2023-06-26T05:21:52;26.80;1.00
18281;DHT22;9266;51.132;17.062;2023-06-26T05:24:19;26.70;99.90
18281;DHT22;9266;51.132;17.062;2023-06-26T05:26:49;27.20;99.90
18281;DHT22;9266;51.132;17.062;2023-06-26T05:29:17;27.40;99.90
18281;DHT22;9266;51.132;17.062;2023-06-26T05:31:45;27.70;99.90
18281;DHT22;9266;51.132;17.062;2023-06-26T05:34:13;28.90;39.30
18281;DHT22;9266;51.132;17.062;2023-06-26T05:36:41;27.50;60.90
18281;DHT22;9266;51.132;17.062;2023-06-26T05:39:09;28.10;8.50
18281;DHT22;9266;51.132;17.062;2023-06-26T05:41:37;28.60;30.30
18281;DHT22;9266;51.132;17.062;2023-06-26T05:44:05;28.00;99.90
18281;DHT22;9266;51.132;17.062;2023-06-26T05:46:32;28.70;1.00
18281;DHT22;9266;51.132;17.062;2023-06-26T05:48:59;29.00;1.00
18281;DHT22;9266;51.132;17.062;2023-06-26T05:51:27;28.40;1.00
18281;DHT22;9266;51.132;17.062;2023-06-26T05:53:55;28.40;1.00
18281;DHT22;9266;51.132;17.062;2023-06-26T05:56:22;28.60;1.00
18281;DHT22;9266;51.132;17.062;2023-06-26T05:58:50;28.70;99.90
18281;DHT22;9266;51.132;17.062;2023-06-26T06:01:19;29.00;99.90
18281;DHT22;9266;51.132;17.062;2023-06-26T06:03:46;29.30;1.00
18281;DHT22;9266;51.132;17.062;2023-06-26T06:06:13;29.10;1.00
18281;DHT22;9266;51.132;17.062;2023-06-26T06:08:41;29.30;1.00
18281;DHT22;9266;51.132;17.062;2023-06-26T06:11:08;29.40;1.00
18281;DHT22;9266;51.132;17.062;2023-06-26T06:13:35;30.30;1.00
18281;DHT22;9266;51.132;17.062;2023-06-26T06:16:03;30.00;1.00
18281;DHT22;9266;51.132;17.062;2023-06-26T06:18:31;29.90;1.00
18281;DHT22;9266;51.132;17.062;2023-06-26T06:20:58;29.30;1.00
18281;DHT22;9266;51.132;17.062;2023-06-26T06:23:26;30.40;1.00
18281;DHT22;9266;51.132;17.062;2023-06-26T06:25:53;29.90;1.00
18281;DHT22;9266;51.132;17.062;2023-06-26T06:28:20;30.10;1.00
18281;DHT22;9266;51.132;17.062;2023-06-26T06:30:47;29.80;1.00
18281;DHT22;9266;51.132;17.062;2023-06-26T06:33:14;29.90;1.00
18281;DHT22;9266;51.132;17.062;2023-06-26T06:35:43;30.80;1.00
18281;DHT22;9266;51.132;17.062;2023-06-26T06:38:10;30.40;1.00
18281;DHT22;9266;51.132;17.062;2023-06-26T06:40:37;30.30;1.00
18281;DHT22;9266;51.132;17.062;2023-06-26T06:43:04;30.10;1.00
18281;DHT22;9266;51.132;17.062;2023-06-26T06:45:31;30.70;1.00
18281;DHT22;9266;51.132;17.062;2023-06-26T06:47:57;30.20;1.00
18281;DHT22;9266;51.132;17.062;2023-06-26T06:50:24;30.90;1.00
18281;DHT22;9266;51.132;17.062;2023-06-26T06:52:53;31.10;1.00
18281;DHT22;9266;51.132;17.062;2023-06-26T06:55:20;31.50;1.00
18281;DHT22;9266;51.132;17.062;2023-06-26T06:57:47;31.60;1.00
18281;DHT22;9266;51.132;17.062;2023-06-26T07:00:14;31.30;1.00
18281;DHT22;9266;51.132;17.062;2023-06-26T07:02:43;31.60;1.00
18281;DHT22;9266;51.132;17.062;2023-06-26T07:05:10;31.70;1.00
18281;DHT22;9266;51.132;17.062;2023-06-26T07:07:38;31.90;1.00
18281;DHT22;9266;51.132;17.062;2023-06-26T07:10:08;31.10;1.00
18281;DHT22;9266;51.132;17.062;2023-06-26T07:12:36;31.60;1.00
18281;DHT22;9266;51.132;17.062;2023-06-26T07:15:04;31.00;1.00
18281;DHT22;9266;51.132;17.062;2023-06-26T07:17:32;30.60;1.00
18281;DHT22;9266;51.132;17.062;2023-06-26T07:19:59;31.70;1.00
18281;DHT22;9266;51.132;17.062;2023-06-26T07:22:26;32.10;1.00
18281;DHT22;9266;51.132;17.062;2023-06-26T07:24:53;32.10;1.00
18281;DHT22;9266;51.132;17.062;2023-06-26T07:27:22;31.80;1.00
18281;DHT22;9266;51.132;17.062;2023-06-26T07:29:49;31.40;1.00
18281;DHT22;9266;51.132;17.062;2023-06-26T07:32:16;30.30;1.00
18281;DHT22;9266;51.132;17.062;2023-06-26T07:34:42;30.30;1.00
18281;DHT22;9266;51.132;17.062;2023-06-26T07:37:10;30.30;1.00
18281;DHT22;9266;51.132;17.062;2023-06-26T07:39:37;30.20;1.00
18281;DHT22;9266;51.132;17.062;2023-06-26T07:42:04;30.00;1.00
18281;DHT22;9266;51.132;17.062;2023-06-26T07:44:32;31.10;1.00
18281;DHT22;9266;51.132;17.062;2023-06-26T07:46:59;31.50;1.00
18281;DHT22;9266;51.132;17.062;2023-06-26T07:49:26;32.30;1.00
18281;DHT22;9266;51.132;17.062;2023-06-26T07:51:53;31.00;1.00
18281;DHT22;9266;51.132;17.062;2023-06-26T07:54:20;30.60;1.00
18281;DHT22;9266;51.132;17.062;2023-06-26T07:56:55;30.70;1.00
18281;DHT22;9266;51.132;17.062;2023-06-26T07:59:23;31.40;1.00
18281;DHT22;9266;51.132;17.062;2023-06-26T08:01:52;31.10;1.00
18281;DHT22;9266;51.132;17.062;2023-06-26T08:04:21;30.70;1.00
18281;DHT22;9266;51.132;17.062;2023-06-26T08:06:48;29.80;1.00
18281;DHT22;9266;51.132;17.062;2023-06-26T08:09:17;31.00;1.00
18281;DHT22;9266;51.132;17.062;2023-06-26T08:11:45;32.40;1.00
18281;DHT22;9266;51.132;17.062;2023-06-26T08:14:12;31.70;1.00
18281;DHT22;9266;51.132;17.062;2023-06-26T08:16:40;31.10;1.00
18281;DHT22;9266;51.132;17.062;2023-06-26T08:19:08;32.00;1.00
18281;DHT22;9266;51.132;17.062;2023-06-26T08:21:35;32.70;1.00
18281;DHT22;9266;51.132;17.062;2023-06-26T08:24:02;33.30;99.90
18281;DHT22;9266;51.132;17.062;2023-06-26T08:26:29;32.60;99.90
18281;DHT22;9266;51.132;17.062;2023-06-26T08:28:56;33.00;99.90
18281;DHT22;9266;51.132;17.062;2023-06-26T08:31:23;33.40;99.90
18281;DHT22;9266;51.132;17.062;2023-06-26T08:33:50;33.20;99.90
18281;DHT22;9266;51.132;17.062;2023-06-26T08:36:18;33.20;99.90
18281;DHT22;9266;51.132;17.062;2023-06-26T08:38:46;33.20;99.90
18281;DHT22;9266;51.132;17.062;2023-06-26T08:41:13;32.60;99.90
18281;DHT22;9266;51.132;17.062;2023-06-26T08:43:40;32.80;99.90
18281;DHT22;9266;51.132;17.062;2023-06-26T08:46:07;33.10;99.90
18281;DHT22;9266;51.132;17.062;2023-06-26T08:48:35;31.90;99.90
18281;DHT22;9266;51.132;17.062;2023-06-26T08:51:07;30.90;99.90
18281;DHT22;9266;51.132;17.062;2023-06-26T08:53:43;31.30;99.90
18281;DHT22;9266;51.132;17.062;2023-06-26T08:56:15;30.60;99.90
18281;DHT22;9266;51.132;17.062;2023-06-26T08:58:44;31.20;99.90
18281;DHT22;9266;51.132;17.062;2023-06-26T09:01:11;32.00;99.90
18281;DHT22;9266;51.132;17.062;2023-06-26T09:03:39;32.40;99.90
18281;DHT22;9266;51.132;17.062;2023-06-26T09:06:07;33.30;99.90
18281;DHT22;9266;51.132;17.062;2023-06-26T09:08:34;33.20;99.90
18281;DHT22;9266;51.132;17.062;2023-06-26T09:11:02;32.50;99.90
18281;DHT22;9266;51.132;17.062;2023-06-26T09:13:32;32.90;99.90
18281;DHT22;9266;51.132;17.062;2023-06-26T09:15:59;32.80;99.90
18281;DHT22;9266;51.132;17.062;2023-06-26T09:18:26;32.30;99.90
18281;DHT22;9266;51.132;17.062;2023-06-26T09:20:54;31.90;99.90
18281;DHT22;9266;51.132;17.062;2023-06-26T09:23:21;31.70;99.90
18281;DHT22;9266;51.132;17.062;2023-06-26T09:25:48;32.50;99.90
18281;DHT22;9266;51.132;17.062;2023-06-26T09:28:19;32.50;99.90
18281;DHT22;9266;51.132;17.062;2023-06-26T09:30:46;31.80;99.90
18281;DHT22;9266;51.132;17.062;2023-06-26T09:33:14;32.00;99.90
18281;DHT22;9266;51.132;17.062;2023-06-26T09:35:42;31.80;99.90
18281;DHT22;9266;51.132;17.062;2023-06-26T09:38:10;30.50;99.90
18281;DHT22;9266;51.132;17.062;2023-06-26T09:40:38;30.10;99.90
18281;DHT22;9266;51.132;17.062;2023-06-26T09:43:05;30.00;99.90
18281;DHT22;9266;51.132;17.062;2023-06-26T09:45:34;29.90;99.90
18281;DHT22;9266;51.132;17.062;2023-06-26T09:48:02;29.60;99.90
18281;DHT22;9266;51.132;17.062;2023-06-26T09:50:30;29.40;99.90
18281;DHT22;9266;51.132;17.062;2023-06-26T09:53:07;29.20;99.90
18281;DHT22;9266;51.132;17.062;2023-06-26T09:55:35;29.30;99.90
18281;DHT22;9266;51.132;17.062;2023-06-26T09:58:03;29.30;99.90
18281;DHT22;9266;51.132;17.062;2023-06-26T10:00:30;29.20;99.90
18281;DHT22;9266;51.132;17.062;2023-06-26T10:02:58;29.20;99.90
18281;DHT22;9266;51.132;17.062;2023-06-26T10:05:26;29.10;99.90
18281;DHT22;9266;51.132;17.062;2023-06-26T10:07:53;29.10;99.90
18281;DHT22;9266;51.132;17.062;2023-06-26T10:10:23;29.10;99.90
18281;DHT22;9266;51.132;17.062;2023-06-26T10:12:56;28.60;99.90
18281;DHT22;9266;51.132;17.062;2023-06-26T10:15:26;28.50;99.90
18281;DHT22;9266;51.132;17.062;2023-06-26T10:17:55;28.60;99.90
18281;DHT22;9266;51.132;17.062;2023-06-26T10:20:25;28.60;99.90
18281;DHT22;9266;51.132;17.062;2023-06-26T10:22:53;29.00;99.90
18281;DHT22;9266;51.132;17.062;2023-06-26T10:25:24;29.40;99.90
18281;DHT22;9266;51.132;17.062;2023-06-26T10:27:54;29.60;99.90
18281;DHT22;9266;51.132;17.062;2023-06-26T10:30:26;29.80;99.90
18281;DHT22;9266;51.132;17.062;2023-06-26T10:32:55;30.10;99.90
18281;DHT22;9266;51.132;17.062;2023-06-26T10:35:25;30.00;99.90
18281;DHT22;9266;51.132;17.062;2023-06-26T10:38:00;29.70;99.90
18281;DHT22;9266;51.132;17.062;2023-06-26T10:40:28;29.50;99.90
18281;DHT22;9266;51.132;17.062;2023-06-26T10:43:06;29.20;99.90
18281;DHT22;9266;51.132;17.062;2023-06-26T10:45:35;29.50;99.90
18281;DHT22;9266;51.132;17.062;2023-06-26T10:48:02;29.50;99.90
18281;DHT22;9266;51.132;17.062;2023-06-26T10:50:31;29.80;99.90
18281;DHT22;9266;51.132;17.062;2023-06-26T10:53:12;29.70;99.90
18281;DHT22;9266;51.132;17.062;2023-06-26T10:55:47;30.10;99.90
18281;DHT22;9266;51.132;17.062;2023-06-26T10:58:31;30.10;99.90
18281;DHT22;9266;51.132;17.062;2023-06-26T11:01:17;30.00;99.90
18281;DHT22;9266;51.132;17.062;2023-06-26T11:03:45;30.10;99.90
18281;DHT22;9266;51.132;17.062;2023-06-26T11:06:18;29.90;99.90
18281;DHT22;9266;51.132;17.062;2023-06-26T11:08:46;30.10;99.90
18281;DHT22;9266;51.132;17.062;2023-06-26T11:11:14;30.30;99.90
18281;DHT22;9266;51.132;17.062;2023-06-26T11:13:42;30.20;99.90
18281;DHT22;9266;51.132;17.062;2023-06-26T11:16:11;29.90;99.90
18281;DHT22;9266;51.132;17.062;2023-06-26T11:18:38;30.10;99.90
18281;DHT22;9266;51.132;17.062;2023-06-26T11:21:06;30.40;99.90
18281;DHT22;9266;51.132;17.062;2023-06-26T11:23:36;30.50;99.90
18281;DHT22;9266;51.132;17.062;2023-06-26T11:26:13;30.30;99.90
18281;DHT22;9266;51.132;17.062;2023-06-26T11:28:46;30.20;99.90
18281;DHT22;9266;51.132;17.062;2023-06-26T11:31:32;30.10;99.90
18281;DHT22;9266;51.132;17.062;2023-06-26T11:34:00;30.10;99.90
18281;DHT22;9266;51.132;17.062;2023-06-26T11:36:27;30.00;99.90
18281;DHT22;9266;51.132;17.062;2023-06-26T11:38:56;30.30;99.90
18281;DHT22;9266;51.132;17.062;2023-06-26T11:41:24;30.30;99.90
18281;DHT22;9266;51.132;17.062;2023-06-26T11:43:51;30.30;99.90
18281;DHT22;9266;51.132;17.062;2023-06-26T11:46:19;30.20;99.90
18281;DHT22;9266;51.132;17.062;2023-06-26T11:48:47;29.90;99.90
18281;DHT22;9266;51.132;17.062;2023-06-26T11:51:14;29.70;99.90
18281;DHT22;9266;51.132;17.062;2023-06-26T11:53:41;30.00;99.90
18281;DHT22;9266;51.132;17.062;2023-06-26T11:56:10;30.10;99.90
18281;DHT22;9266;51.132;17.062;2023-06-26T11:58:56;30.10;99.90
18281;DHT22;9266;51.132;17.062;2023-06-26T12:01:24;30.00;99.90
18281;DHT22;9266;51.132;17.062;2023-06-26T12:03:54;29.70;99.90
18281;DHT22;9266;51.132;17.062;2023-06-26T12:06:21;29.60;99.90
18281;DHT22;9266;51.132;17.062;2023-06-26T12:08:48;29.80;99.90
18281;DHT22;9266;51.132;17.062;2023-06-26T12:11:17;29.50;99.90
18281;DHT22;9266;51.132;17.062;2023-06-26T12:13:44;29.60;99.90
18281;DHT22;9266;51.132;17.062;2023-06-26T12:16:12;29.70;99.90
18281;DHT22;9266;51.132;17.062;2023-06-26T12:18:40;29.70;99.90
18281;DHT22;9266;51.132;17.062;2023-06-26T12:21:07;29.60;99.90
18281;DHT22;9266;51.132;17.062;2023-06-26T12:23:39;29.70;99.90
18281;DHT22;9266;51.132;17.062;2023-06-26T12:26:20;29.60;99.90
18281;DHT22;9266;51.132;17.062;2023-06-26T12:28:47;29.90;99.90
18281;DHT22;9266;51.132;17.062;2023-06-26T12:31:15;29.70;99.90
18281;DHT22;9266;51.132;17.062;2023-06-26T12:33:42;29.30;99.90
18281;DHT22;9266;51.132;17.062;2023-06-26T12:36:13;29.10;99.90
18281;DHT22;9266;51.132;17.062;2023-06-26T12:38:41;29.20;99.90
18281;DHT22;9266;51.132;17.062;2023-06-26T12:41:12;29.00;99.90
18281;DHT22;9266;51.132;17.062;2023-06-26T12:43:42;29.00;99.90
18281;DHT22;9266;51.132;17.062;2023-06-26T12:46:09;29.20;99.90
18281;DHT22;9266;51.132;17.062;2023-06-26T12:48:37;29.30;99.90
18281;DHT22;9266;51.132;17.062;2023-06-26T12:51:09;29.50;99.90
18281;DHT22;9266;51.132;17.062;2023-06-26T12:53:37;29.50;99.90
18281;DHT22;9266;51.132;17.062;2023-06-26T12:56:05;29.20;99.90
18281;DHT22;9266;51.132;17.062;2023-06-26T12:58:32;29.00;99.90
18281;DHT22;9266;51.132;17.062;2023-06-26T13:01:03;28.90;99.90
18281;DHT22;9266;51.132;17.062;2023-06-26T13:03:31;29.10;99.90
18281;DHT22;9266;51.132;17.062;2023-06-26T13:05:58;29.30;99.90
18281;DHT22;9266;51.132;17.062;2023-06-26T13:08:25;29.70;99.90
18281;DHT22;9266;51.132;17.062;2023-06-26T13:10:52;29.80;99.90
18281;DHT22;9266;51.132;17.062;2023-06-26T13:13:19;29.70;99.90
18281;DHT22;9266;51.132;17.062;2023-06-26T13:15:46;29.90;99.90
18281;DHT22;9266;51.132;17.062;2023-06-26T13:18:14;30.00;99.90
18281;DHT22;9266;51.132;17.062;2023-06-26T13:20:41;30.20;99.90
18281;DHT22;9266;51.132;17.062;2023-06-26T13:23:08;30.10;99.90
18281;DHT22;9266;51.132;17.062;2023-06-26T13:25:35;30.00;99.90
18281;DHT22;9266;51.132;17.062;2023-06-26T13:28:02;30.20;99.90
18281;DHT22;9266;51.132;17.062;2023-06-26T13:30:29;30.40;99.90
18281;DHT22;9266;51.132;17.062;2023-06-26T13:32:56;30.60;99.90
18281;DHT22;9266;51.132;17.062;2023-06-26T13:35:24;30.50;99.90
18281;DHT22;9266;51.132;17.062;2023-06-26T13:37:51;30.50;99.90
18281;DHT22;9266;51.132;17.062;2023-06-26T13:40:18;30.00;99.90
18281;DHT22;9266;51.132;17.062;2023-06-26T13:42:45;30.00;99.90
18281;DHT22;9266;51.132;17.062;2023-06-26T13:45:12;29.90;99.90
18281;DHT22;9266;51.132;17.062;2023-06-26T13:47:39;29.80;99.90
18281;DHT22;9266;51.132;17.062;2023-06-26T13:50:09;29.60;99.90
18281;DHT22;9266;51.132;17.062;2023-06-26T13:52:38;29.40;99.90
18281;DHT22;9266;51.132;17.062;2023-06-26T13:55:05;29.30;99.90
18281;DHT22;9266;51.132;17.062;2023-06-26T13:57:32;29.50;99.90
18281;DHT22;9266;51.132;17.062;2023-06-26T14:00:00;29.70;99.90
18281;DHT22;9266;51.132;17.062;2023-06-26T14:02:28;30.00;99.90
18281;DHT22;9266;51.132;17.062;2023-06-26T14:04:55;30.10;99.90
18281;DHT22;9266;51.132;17.062;2023-06-26T14:07:22;30.30;99.90
18281;DHT22;9266;51.132;17.062;2023-06-26T14:09:51;30.30;99.90
18281;DHT22;9266;51.132;17.062;2023-06-26T14:12:18;30.20;99.90
18281;DHT22;9266;51.132;17.062;2023-06-26T14:14:45;30.30;99.90
18281;DHT22;9266;51.132;17.062;2023-06-26T14:17:12;30.40;99.90
18281;DHT22;9266;51.132;17.062;2023-06-26T14:19:42;30.40;99.90
18281;DHT22;9266;51.132;17.062;2023-06-26T14:22:09;30.60;99.90
18281;DHT22;9266;51.132;17.062;2023-06-26T14:24:36;30.60;99.90
18281;DHT22;9266;51.132;17.062;2023-06-26T14:27:04;30.70;99.90
18281;DHT22;9266;51.132;17.062;2023-06-26T14:29:32;30.30;99.90
18281;DHT22;9266;51.132;17.062;2023-06-26T14:31:59;30.20;99.90
18281;DHT22;9266;51.132;17.062;2023-06-26T14:34:26;29.90;99.90
18281;DHT22;9266;51.132;17.062;2023-06-26T14:36:52;29.90;99.90
18281;DHT22;9266;51.132;17.062;2023-06-26T14:39:19;30.00;99.90
18281;DHT22;9266;51.132;17.062;2023-06-26T14:41:46;30.10;99.90
18281;DHT22;9266;51.132;17.062;2023-06-26T14:44:15;30.20;99.90
18281;DHT22;9266;51.132;17.062;2023-06-26T14:46:42;30.00;99.90
18281;DHT22;9266;51.132;17.062;2023-06-26T14:49:09;30.10;99.90
18281;DHT22;9266;51.132;17.062;2023-06-26T14:51:36;30.20;99.90
18281;DHT22;9266;51.132;17.062;2023-06-26T14:54:04;30.20;99.90
18281;DHT22;9266;51.132;17.062;2023-06-26T14:56:31;30.20;99.90
18281;DHT22;9266;51.132;17.062;2023-06-26T14:58:59;30.20;99.90
18281;DHT22;9266;51.132;17.062;2023-06-26T15:01:27;30.30;99.90
18281;DHT22;9266;51.132;17.062;2023-06-26T15:03:55;30.50;99.90
18281;DHT22;9266;51.132;17.062;2023-06-26T15:06:22;30.50;99.90
18281;DHT22;9266;51.132;17.062;2023-06-26T15:08:49;30.30;99.90
18281;DHT22;9266;51.132;17.062;2023-06-26T15:11:18;30.10;99.90
18281;DHT22;9266;51.132;17.062;2023-06-26T15:13:45;29.70;99.90
18281;DHT22;9266;51.132;17.062;2023-06-26T15:16:12;29.60;99.90
18281;DHT22;9266;51.132;17.062;2023-06-26T15:18:40;29.70;99.90
18281;DHT22;9266;51.132;17.062;2023-06-26T15:21:07;29.70;99.90
18281;DHT22;9266;51.132;17.062;2023-06-26T15:23:34;29.70;99.90
18281;DHT22;9266;51.132;17.062;2023-06-26T15:26:01;29.70;99.90
18281;DHT22;9266;51.132;17.062;2023-06-26T15:28:28;29.70;99.90
18281;DHT22;9266;51.132;17.062;2023-06-26T15:30:55;29.80;99.90
18281;DHT22;9266;51.132;17.062;2023-06-26T15:33:22;29.90;99.90
18281;DHT22;9266;51.132;17.062;2023-06-26T15:35:51;30.00;99.90
18281;DHT22;9266;51.132;17.062;2023-06-26T15:38:18;30.00;99.90
18281;DHT22;9266;51.132;17.062;2023-06-26T15:40:44;30.00;99.90